sensor_id;sensor_type;location;lat;lon;timestamp;pressure;altitude;pressure_sealevel;temperature;humidity
21290;BME280;10804;48.988;2.408;2023-03-14T00:02:14;98671.28;;;13.66;66.23
21290;BME280;10804;48.988;2.408;2023-03-14T00:04:41;98665.91;;;13.68;66.26
21290;BME280;10804;48.988;2.408;2023-03-14T00:07:10;98672.00;;;13.68;66.20
21290;BME280;10804;48.988;2.408;2023-03-14T00:09:37;98666.03;;;13.66;66.42
21290;BME280;10804;48.988;2.408;2023-03-14T00:12:06;98662.56;;;13.66;66.23
21290;BME280;10804;48.988;2.408;2023-03-14T00:14:34;98649.47;;;13.66;66.05
21290;BME280;10804;48.988;2.408;2023-03-14T00:17:01;98647.81;;;13.65;66.21
21290;BME280;10804;48.988;2.408;2023-03-14T00:19:29;98646.84;;;13.66;66.25
21290;BME280;10804;48.988;2.408;2023-03-14T00:21:56;98653.03;;;13.65;66.29
21290;BME280;10804;48.988;2.408;2023-03-14T00:24:23;98652.31;;;13.63;66.13
21290;BME280;10804;48.988;2.408;2023-03-14T00:26:50;98651.38;;;13.64;66.23
21290;BME280;10804;48.988;2.408;2023-03-14T00:29:19;98658.38;;;13.63;66.30
21290;BME280;10804;48.988;2.408;2023-03-14T00:31:46;98649.81;;;13.61;66.39
21290;BME280;10804;48.988;2.408;2023-03-14T00:34:14;98639.31;;;13.61;66.39
21290;BME280;10804;48.988;2.408;2023-03-14T00:36:41;98641.94;;;13.61;66.08
21290;BME280;10804;48.988;2.408;2023-03-14T00:39:08;98634.91;;;13.62;66.25
21290;BME280;10804;48.988;2.408;2023-03-14T00:41:36;98637.66;;;13.60;66.27
21290;BME280;10804;48.988;2.408;2023-03-14T00:44:03;98628.00;;;13.61;66.19
21290;BME280;10804;48.988;2.408;2023-03-14T00:46:32;98611.47;;;13.60;66.13
21290;BME280;10804;48.988;2.408;2023-03-14T00:48:59;98621.94;;;13.60;66.09
21290;BME280;10804;48.988;2.408;2023-03-14T00:51:27;98616.81;;;13.59;66.38
21290;BME280;10804;48.988;2.408;2023-03-14T00:53:55;98611.66;;;13.57;66.25
21290;BME280;10804;48.988;2.408;2023-03-14T00:56:22;98617.84;;;13.56;66.00
21290;BME280;10804;48.988;2.408;2023-03-14T00:58:53;98602.38;;;13.53;66.42
21290;BME280;10804;48.988;2.408;2023-03-14T01:01:21;98620.47;;;13.56;66.38
21290;BME280;10804;48.988;2.408;2023-03-14T01:03:52;98614.41;;;13.56;66.39
21290;BME280;10804;48.988;2.408;2023-03-14T01:06:21;98612.63;;;13.56;66.16
21290;BME280;10804;48.988;2.408;2023-03-14T01:08:50;98619.66;;;13.56;66.28
21290;BME280;10804;48.988;2.408;2023-03-14T01:11:20;98620.69;;;13.53;66.41
21290;BME280;10804;48.988;2.408;2023-03-14T01:13:47;98611.91;;;13.54;66.06
21290;BME280;10804;48.988;2.408;2023-03-14T01:16:16;98600.56;;;13.54;66.13
21290;BME280;10804;48.988;2.408;2023-03-14T01:18:45;98612.94;;;13.52;66.05
21290;BME280;10804;48.988;2.408;2023-03-14T01:21:17;98608.56;;;13.52;66.40
21290;BME280;10804;48.988;2.408;2023-03-14T01:23:46;98606.75;;;13.53;66.11
21290;BME280;10804;48.988;2.408;2023-03-14T01:26:15;98605.94;;;13.52;66.20
21290;BME280;10804;48.988;2.408;2023-03-14T01:28:46;98603.31;;;13.52;65.97
21290;BME280;10804;48.988;2.408;2023-03-14T01:31:14;98614.75;;;13.51;66.39
21290;BME280;10804;48.988;2.408;2023-03-14T01:33:42;98610.44;;;13.50;66.05
21290;BME280;10804;48.988;2.408;2023-03-14T01:36:11;98607.09;;;13.48;66.06
21290;BME280;10804;48.988;2.408;2023-03-14T01:38:43;98607.81;;;13.50;66.19
21290;BME280;10804;48.988;2.408;2023-03-14T01:41:14;98610.44;;;13.50;66.16
21290;BME280;10804;48.988;2.408;2023-03-14T01:43:43;98600.09;;;13.49;66.20
21290;BME280;10804;48.988;2.408;2023-03-14T01:46:24;98611.50;;;13.48;66.32
21290;BME280;10804;48.988;2.408;2023-03-14T01:48:57;98612.31;;;13.48;66.26
21290;BME280;10804;48.988;2.408;2023-03-14T01:51:29;98614.00;;;13.49;66.20
21290;BME280;10804;48.988;2.408;2023-03-14T01:54:06;98621.03;;;13.49;66.35
21290;BME280;10804;48.988;2.408;2023-03-14T01:56:35;98614.94;;;13.48;66.04
21290;BME280;10804;48.988;2.408;2023-03-14T01:59:06;98607.19;;;13.47;66.07
21290;BME280;10804;48.988;2.408;2023-03-14T02:04:07;98616.00;;;13.46;66.15
21290;BME280;10804;48.988;2.408;2023-03-14T02:06:41;98613.38;;;13.46;66.15
21290;BME280;10804;48.988;2.408;2023-03-14T02:09:14;98619.47;;;13.46;66.04
21290;BME280;10804;48.988;2.408;2023-03-14T02:11:42;98613.38;;;13.46;66.03
21290;BME280;10804;48.988;2.408;2023-03-14T02:14:30;98616.13;;;13.44;66.08
21290;BME280;10804;48.988;2.408;2023-03-14T02:17:17;98617.78;;;13.45;66.04
21290;BME280;10804;48.988;2.408;2023-03-14T02:20:21;98617.78;;;13.45;66.05
21290;BME280;10804;48.988;2.408;2023-03-14T02:22:55;98617.78;;;13.45;66.19
21290;BME280;10804;48.988;2.408;2023-03-14T02:25:31;98619.56;;;13.45;65.93
21290;BME280;10804;48.988;2.408;2023-03-14T02:28:04;98616.94;;;13.45;66.41
21290;BME280;10804;48.988;2.408;2023-03-14T02:30:33;98614.47;;;13.43;66.25
21290;BME280;10804;48.988;2.408;2023-03-14T02:33:04;98611.72;;;13.45;66.15
21290;BME280;10804;48.988;2.408;2023-03-14T02:35:36;98606.69;;;13.42;66.15
21290;BME280;10804;48.988;2.408;2023-03-14T02:38:10;98614.56;;;13.42;66.26
21290;BME280;10804;48.988;2.408;2023-03-14T02:40:43;98611.09;;;13.41;66.02
21290;BME280;10804;48.988;2.408;2023-03-14T02:43:13;98603.13;;;13.43;66.15
21290;BME280;10804;48.988;2.408;2023-03-14T02:45:45;98596.22;;;13.42;66.22
21290;BME280;10804;48.988;2.408;2023-03-14T02:48:19;98593.59;;;13.42;66.11
21290;BME280;10804;48.988;2.408;2023-03-14T02:50:49;98598.00;;;13.41;65.95
21290;BME280;10804;48.988;2.408;2023-03-14T02:53:20;98595.38;;;13.41;66.20
21290;BME280;10804;48.988;2.408;2023-03-14T02:55:49;98602.50;;;13.39;66.06
21290;BME280;10804;48.988;2.408;2023-03-14T02:58:20;98597.28;;;13.39;66.38
21290;BME280;10804;48.988;2.408;2023-03-14T03:00:52;98603.34;;;13.40;66.23
21290;BME280;10804;48.988;2.408;2023-03-14T03:03:19;98595.94;;;13.34;66.07
21290;BME280;10804;48.988;2.408;2023-03-14T03:05:49;98601.78;;;13.37;66.14
21290;BME280;10804;48.988;2.408;2023-03-14T03:08:18;98601.66;;;13.39;65.89
21290;BME280;10804;48.988;2.408;2023-03-14T03:10:45;98611.31;;;13.38;65.95
21290;BME280;10804;48.988;2.408;2023-03-14T03:13:13;98607.84;;;13.38;65.92
21290;BME280;10804;48.988;2.408;2023-03-14T03:15:43;98610.47;;;13.38;66.03
21290;BME280;10804;48.988;2.408;2023-03-14T03:18:11;98615.69;;;13.38;66.09
21290;BME280;10804;48.988;2.408;2023-03-14T03:20:39;98614.03;;;13.37;66.24
21290;BME280;10804;48.988;2.408;2023-03-14T03:23:06;98618.31;;;13.38;66.16
21290;BME280;10804;48.988;2.408;2023-03-14T03:25:33;98617.59;;;13.36;65.97
21290;BME280;10804;48.988;2.408;2023-03-14T03:28:04;98621.06;;;13.36;66.37
21290;BME280;10804;48.988;2.408;2023-03-14T03:30:37;98616.75;;;13.35;66.17
21290;BME280;10804;48.988;2.408;2023-03-14T03:33:06;98619.38;;;13.35;66.14
21290;BME280;10804;48.988;2.408;2023-03-14T03:35:34;98615.94;;;13.35;66.04
21290;BME280;10804;48.988;2.408;2023-03-14T03:38:02;98624.72;;;13.34;66.34
21290;BME280;10804;48.988;2.408;2023-03-14T03:40:30;98629.13;;;13.33;66.28
21290;BME280;10804;48.988;2.408;2023-03-14T03:42:57;98632.69;;;13.32;66.06
21290;BME280;10804;48.988;2.408;2023-03-14T03:45:25;98627.44;;;13.32;66.33
21290;BME280;10804;48.988;2.408;2023-03-14T03:47:55;98626.63;;;13.32;66.23
21290;BME280;10804;48.988;2.408;2023-03-14T03:50:24;98636.25;;;13.31;66.35
21290;BME280;10804;48.988;2.408;2023-03-14T03:52:52;98624.91;;;13.31;65.99
21290;BME280;10804;48.988;2.408;2023-03-14T03:55:19;98626.72;;;13.30;66.29
21290;BME280;10804;48.988;2.408;2023-03-14T03:57:47;98633.72;;;13.30;66.09
21290;BME280;10804;48.988;2.408;2023-03-14T04:00:14;98643.38;;;13.29;66.15
21290;BME280;10804;48.988;2.408;2023-03-14T04:02:42;98638.13;;;13.29;66.37
21290;BME280;10804;48.988;2.408;2023-03-14T04:05:13;98629.53;;;13.27;66.24
21290;BME280;10804;48.988;2.408;2023-03-14T04:07:48;98632.16;;;13.27;66.21
21290;BME280;10804;48.988;2.408;2023-03-14T04:10:21;98632.16;;;13.27;66.36
21290;BME280;10804;48.988;2.408;2023-03-14T04:13:18;98640.13;;;13.26;66.24
21290;BME280;10804;48.988;2.408;2023-03-14T04:15:51;98644.41;;;13.27;65.99
21290;BME280;10804;48.988;2.408;2023-03-14T04:18:23;98647.97;;;13.26;66.25
21290;BME280;10804;48.988;2.408;2023-03-14T04:20:52;98645.38;;;13.26;66.38
21290;BME280;10804;48.988;2.408;2023-03-14T04:23:23;98648.19;;;13.23;66.18
21290;BME280;10804;48.988;2.408;2023-03-14T04:25:52;98656.78;;;13.25;66.44
21290;BME280;10804;48.988;2.408;2023-03-14T04:28:21;98663.78;;;13.24;66.33
21290;BME280;10804;48.988;2.408;2023-03-14T04:30:48;98672.59;;;13.23;66.13
21290;BME280;10804;48.988;2.408;2023-03-14T04:33:20;98672.50;;;13.25;66.24
21290;BME280;10804;48.988;2.408;2023-03-14T04:35:53;98678.75;;;13.22;66.09
21290;BME280;10804;48.988;2.408;2023-03-14T04:38:22;98683.88;;;13.24;66.07
21290;BME280;10804;48.988;2.408;2023-03-14T04:40:51;98681.38;;;13.22;65.99
21290;BME280;10804;48.988;2.408;2023-03-14T04:43:20;98684.41;;;13.16;66.04
21290;BME280;10804;48.988;2.408;2023-03-14T04:45:53;98698.03;;;13.21;66.09
21290;BME280;10804;48.988;2.408;2023-03-14T04:48:21;98702.41;;;13.21;66.40
21290;BME280;10804;48.988;2.408;2023-03-14T04:50:49;98720.00;;;13.19;66.43
21290;BME280;10804;48.988;2.408;2023-03-14T04:53:17;98729.63;;;13.18;66.18
21290;BME280;10804;48.988;2.408;2023-03-14T04:55:49;98761.75;;;13.20;66.25
21290;BME280;10804;48.988;2.408;2023-03-14T04:58:18;98776.75;;;13.18;66.13
21290;BME280;10804;48.988;2.408;2023-03-14T05:00:46;98784.50;;;13.20;66.22
21290;BME280;10804;48.988;2.408;2023-03-14T05:03:36;98823.84;;;13.18;66.41
21290;BME280;10804;48.988;2.408;2023-03-14T05:06:27;98821.34;;;13.17;66.23
21290;BME280;10804;48.988;2.408;2023-03-14T05:09:26;98824.06;;;13.15;66.40
21290;BME280;10804;48.988;2.408;2023-03-14T05:12:14;98838.09;;;13.14;66.21
21290;BME280;10804;48.988;2.408;2023-03-14T05:14:54;98855.66;;;13.12;66.45
21290;BME280;10804;48.988;2.408;2023-03-14T05:17:25;98863.63;;;13.11;66.45
21290;BME280;10804;48.988;2.408;2023-03-14T05:20:11;98870.63;;;13.10;66.57
21290;BME280;10804;48.988;2.408;2023-03-14T05:23:08;98885.59;;;13.08;66.21
21290;BME280;10804;48.988;2.408;2023-03-14T05:25:52;98903.19;;;13.06;66.25
21290;BME280;10804;48.988;2.408;2023-03-14T05:28:40;98905.03;;;13.04;66.43
21290;BME280;10804;48.988;2.408;2023-03-14T05:31:22;98920.00;;;13.02;66.43
21290;BME280;10804;48.988;2.408;2023-03-14T05:33:50;98935.78;;;13.01;66.56
21290;BME280;10804;48.988;2.408;2023-03-14T05:36:30;98949.00;;;12.99;66.39
21290;BME280;10804;48.988;2.408;2023-03-14T05:39:00;98944.88;;;12.95;66.50
21290;BME280;10804;48.988;2.408;2023-03-14T05:41:46;98966.75;;;12.94;66.57
21290;BME280;10804;48.988;2.408;2023-03-14T05:44:26;98967.66;;;12.93;66.53
21290;BME280;10804;48.988;2.408;2023-03-14T05:46:53;98984.38;;;12.91;66.45
21290;BME280;10804;48.988;2.408;2023-03-14T05:49:49;98991.59;;;12.87;66.49
21290;BME280;10804;48.988;2.408;2023-03-14T05:52:35;98998.69;;;12.85;66.47
21290;BME280;10804;48.988;2.408;2023-03-14T05:55:03;99017.09;;;12.84;66.56
21290;BME280;10804;48.988;2.408;2023-03-14T05:57:49;99020.66;;;12.83;66.78
21290;BME280;10804;48.988;2.408;2023-03-14T06:00:36;99036.53;;;12.80;66.77
21290;BME280;10804;48.988;2.408;2023-03-14T06:03:20;99048.97;;;12.76;66.74
21290;BME280;10804;48.988;2.408;2023-03-14T06:05:49;99053.53;;;12.73;66.81
21290;BME280;10804;48.988;2.408;2023-03-14T06:08:18;99060.53;;;12.72;66.67
21290;BME280;10804;48.988;2.408;2023-03-14T06:10:46;99083.34;;;12.70;66.97
21290;BME280;10804;48.988;2.408;2023-03-14T06:13:13;99083.34;;;12.70;67.00
21290;BME280;10804;48.988;2.408;2023-03-14T06:15:44;99091.25;;;12.69;66.72
21290;BME280;10804;48.988;2.408;2023-03-14T06:18:12;99097.50;;;12.66;67.03
21290;BME280;10804;48.988;2.408;2023-03-14T06:20:41;99117.69;;;12.64;67.07
21290;BME280;10804;48.988;2.408;2023-03-14T06:23:12;99122.19;;;12.62;67.37
21290;BME280;10804;48.988;2.408;2023-03-14T06:25:39;99147.47;;;12.62;66.91
21290;BME280;10804;48.988;2.408;2023-03-14T06:28:07;99146.81;;;12.58;66.98
21290;BME280;10804;48.988;2.408;2023-03-14T06:30:35;99147.94;;;12.54;67.30
21290;BME280;10804;48.988;2.408;2023-03-14T06:33:04;99158.47;;;12.53;66.97
21290;BME280;10804;48.988;2.408;2023-03-14T06:35:31;99159.34;;;12.53;67.31
21290;BME280;10804;48.988;2.408;2023-03-14T06:37:59;99179.59;;;12.50;67.15
21290;BME280;10804;48.988;2.408;2023-03-14T06:40:26;99186.56;;;12.49;67.31
21290;BME280;10804;48.988;2.408;2023-03-14T06:43:01;99197.16;;;12.48;67.38
21290;BME280;10804;48.988;2.408;2023-03-14T06:45:31;99219.06;;;12.45;67.51
21290;BME280;10804;48.988;2.408;2023-03-14T06:48:01;99229.69;;;12.42;67.34
21290;BME280;10804;48.988;2.408;2023-03-14T06:50:41;99239.31;;;12.42;67.44
21290;BME280;10804;48.988;2.408;2023-03-14T06:53:09;99253.41;;;12.39;67.50
21290;BME280;10804;48.988;2.408;2023-03-14T06:55:39;99261.44;;;12.36;67.38
21290;BME280;10804;48.988;2.408;2023-03-14T06:58:08;99268.50;;;12.34;67.46
21290;BME280;10804;48.988;2.408;2023-03-14T07:00:41;99269.41;;;12.33;67.54
21290;BME280;10804;48.988;2.408;2023-03-14T07:03:12;99276.53;;;12.31;67.62
21290;BME280;10804;48.988;2.408;2023-03-14T07:05:44;99290.66;;;12.27;67.62
21290;BME280;10804;48.988;2.408;2023-03-14T07:08:11;99301.91;;;12.29;67.33
21290;BME280;10804;48.988;2.408;2023-03-14T07:10:38;99312.50;;;12.26;67.40
21290;BME280;10804;48.988;2.408;2023-03-14T07:13:07;99310.06;;;12.23;67.53
21290;BME280;10804;48.988;2.408;2023-03-14T07:15:44;99319.69;;;12.23;67.59
21290;BME280;10804;48.988;2.408;2023-03-14T07:18:11;99336.38;;;12.20;67.46
21290;BME280;10804;48.988;2.408;2023-03-14T07:20:39;99339.91;;;12.19;67.48
21290;BME280;10804;48.988;2.408;2023-03-14T07:23:09;99355.50;;;12.21;67.52
21290;BME280;10804;48.988;2.408;2023-03-14T07:25:48;99352.97;;;12.19;67.46
21290;BME280;10804;48.988;2.408;2023-03-14T07:28:18;99352.97;;;12.19;67.48
21290;BME280;10804;48.988;2.408;2023-03-14T07:30:47;99379.28;;;12.16;67.66
21290;BME280;10804;48.988;2.408;2023-03-14T07:33:20;99394.97;;;12.16;67.52
21290;BME280;10804;48.988;2.408;2023-03-14T07:35:48;99392.50;;;12.13;67.64
21290;BME280;10804;48.988;2.408;2023-03-14T07:38:17;99404.66;;;12.14;67.70
21290;BME280;10804;48.988;2.408;2023-03-14T07:41:06;99414.34;;;12.12;67.79
21290;BME280;10804;48.988;2.408;2023-03-14T07:43:37;99428.31;;;12.11;67.75
21290;BME280;10804;48.988;2.408;2023-03-14T07:46:04;99429.31;;;12.09;67.83
21290;BME280;10804;48.988;2.408;2023-03-14T07:48:32;99431.09;;;12.08;67.67
21290;BME280;10804;48.988;2.408;2023-03-14T07:50:59;99431.09;;;12.08;67.63
21290;BME280;10804;48.988;2.408;2023-03-14T07:53:28;99443.25;;;12.09;67.67
21290;BME280;10804;48.988;2.408;2023-03-14T07:55:55;99437.25;;;12.07;67.65
21290;BME280;10804;48.988;2.408;2023-03-14T07:58:22;99445.94;;;12.08;67.66
21290;BME280;10804;48.988;2.408;2023-03-14T08:00:50;99449.47;;;12.07;67.78
21290;BME280;10804;48.988;2.408;2023-03-14T08:03:18;99457.31;;;12.07;67.85
21290;BME280;10804;48.988;2.408;2023-03-14T08:05:47;99461.72;;;12.06;67.67
21290;BME280;10804;48.988;2.408;2023-03-14T08:08:15;99470.44;;;12.05;67.85
21290;BME280;10804;48.988;2.408;2023-03-14T08:10:43;99486.91;;;12.07;67.53
21290;BME280;10804;48.988;2.408;2023-03-14T08:13:12;99486.91;;;12.07;67.79
21290;BME280;10804;48.988;2.408;2023-03-14T08:15:39;99487.84;;;12.06;67.53
21290;BME280;10804;48.988;2.408;2023-03-14T08:18:06;99495.56;;;12.08;67.65
21290;BME280;10804;48.988;2.408;2023-03-14T08:20:35;99500.81;;;12.08;67.74
21290;BME280;10804;48.988;2.408;2023-03-14T08:23:03;99511.19;;;12.09;67.53
21290;BME280;10804;48.988;2.408;2023-03-14T08:25:30;99514.50;;;12.13;67.67
21290;BME280;10804;48.988;2.408;2023-03-14T08:27:59;99512.88;;;12.10;67.55
21290;BME280;10804;48.988;2.408;2023-03-14T08:30:26;99525.78;;;12.13;67.60
21290;BME280;10804;48.988;2.408;2023-03-14T08:32:55;99527.50;;;12.14;67.71
21290;BME280;10804;48.988;2.408;2023-03-14T08:35:32;99532.56;;;12.17;67.43
21290;BME280;10804;48.988;2.408;2023-03-14T08:38:02;99537.00;;;12.15;67.47
21290;BME280;10804;48.988;2.408;2023-03-14T08:40:30;99539.53;;;12.17;67.61
21290;BME280;10804;48.988;2.408;2023-03-14T08:42:58;99545.44;;;12.20;67.22
21290;BME280;10804;48.988;2.408;2023-03-14T08:45:26;99548.00;;;12.22;67.23
21290;BME280;10804;48.988;2.408;2023-03-14T08:47:53;99538.28;;;12.24;67.30
21290;BME280;10804;48.988;2.408;2023-03-14T08:50:21;99550.44;;;12.25;67.54
21290;BME280;10804;48.988;2.408;2023-03-14T08:52:49;99552.97;;;12.26;67.39
21290;BME280;10804;48.988;2.408;2023-03-14T08:55:16;99575.59;;;12.27;67.48
21290;BME280;10804;48.988;2.408;2023-03-14T08:57:43;99571.84;;;12.33;67.30
21290;BME280;10804;48.988;2.408;2023-03-14T09:00:13;99570.03;;;12.33;67.35
21290;BME280;10804;48.988;2.408;2023-03-14T09:02:41;99574.28;;;12.36;67.19
21290;BME280;10804;48.988;2.408;2023-03-14T09:05:09;99578.50;;;12.38;67.11
21290;BME280;10804;48.988;2.408;2023-03-14T09:07:37;99585.44;;;12.39;67.19
21290;BME280;10804;48.988;2.408;2023-03-14T09:10:06;99593.19;;;12.41;67.34
21290;BME280;10804;48.988;2.408;2023-03-14T09:12:34;99584.31;;;12.43;67.51
21290;BME280;10804;48.988;2.408;2023-03-14T09:15:01;99597.19;;;12.48;67.41
21290;BME280;10804;48.988;2.408;2023-03-14T09:17:30;99602.44;;;12.48;67.07
21290;BME280;10804;48.988;2.408;2023-03-14T09:19:57;99610.94;;;12.51;67.13
21290;BME280;10804;48.988;2.408;2023-03-14T09:22:24;99621.25;;;12.54;67.31
21290;BME280;10804;48.988;2.408;2023-03-14T09:24:52;99640.50;;;12.53;67.05
21290;BME280;10804;48.988;2.408;2023-03-14T09:27:19;99651.72;;;12.55;67.08
21290;BME280;10804;48.988;2.408;2023-03-14T09:29:46;99663.72;;;12.59;66.88
21290;BME280;10804;48.988;2.408;2023-03-14T09:32:13;99679.41;;;12.59;67.14
21290;BME280;10804;48.988;2.408;2023-03-14T09:34:42;99709.00;;;12.60;66.86
21290;BME280;10804;48.988;2.408;2023-03-14T09:37:09;99723.72;;;12.62;67.11
21290;BME280;10804;48.988;2.408;2023-03-14T09:39:36;99725.41;;;12.63;66.93
21290;BME280;10804;48.988;2.408;2023-03-14T09:42:06;99712.56;;;12.59;67.26
21290;BME280;10804;48.988;2.408;2023-03-14T09:44:37;99703.78;;;12.60;66.90
21290;BME280;10804;48.988;2.408;2023-03-14T09:47:07;99715.22;;;12.57;67.05
21290;BME280;10804;48.988;2.408;2023-03-14T09:49:39;99716.91;;;12.58;67.10
21290;BME280;10804;48.988;2.408;2023-03-14T09:52:13;99717.03;;;12.57;67.12
21290;BME280;10804;48.988;2.408;2023-03-14T09:54:44;99731.84;;;12.56;66.98
21290;BME280;10804;48.988;2.408;2023-03-14T09:57:15;99729.25;;;12.56;67.09
21290;BME280;10804;48.988;2.408;2023-03-14T09:59:45;99734.63;;;12.53;67.10
21290;BME280;10804;48.988;2.408;2023-03-14T10:02:15;99731.91;;;12.55;67.12
21290;BME280;10804;48.988;2.408;2023-03-14T10:04:44;99734.75;;;12.50;67.14
21290;BME280;10804;48.988;2.408;2023-03-14T10:07:15;99747.00;;;12.50;67.29
21290;BME280;10804;48.988;2.408;2023-03-14T10:09:46;99752.16;;;12.51;67.36
21290;BME280;10804;48.988;2.408;2023-03-14T10:12:14;99764.16;;;12.55;67.00
21290;BME280;10804;48.988;2.408;2023-03-14T10:14:47;99776.31;;;12.56;67.00
21290;BME280;10804;48.988;2.408;2023-03-14T10:17:17;99768.47;;;12.56;67.35
21290;BME280;10804;48.988;2.408;2023-03-14T10:19:52;99783.94;;;12.61;66.98
21290;BME280;10804;48.988;2.408;2023-03-14T10:22:23;99777.88;;;12.60;67.14
21290;BME280;10804;48.988;2.408;2023-03-14T10:24:54;99785.63;;;12.62;67.20
21290;BME280;10804;48.988;2.408;2023-03-14T10:27:28;99806.31;;;12.66;66.85
21290;BME280;10804;48.988;2.408;2023-03-14T10:29:57;99799.41;;;12.65;66.94
21290;BME280;10804;48.988;2.408;2023-03-14T10:32:32;99814.16;;;12.66;66.81
21290;BME280;10804;48.988;2.408;2023-03-14T10:35:06;99794.81;;;12.70;66.83
21290;BME280;10804;48.988;2.408;2023-03-14T10:37:36;99806.88;;;12.73;66.69
21290;BME280;10804;48.988;2.408;2023-03-14T10:40:14;99815.44;;;12.76;66.91
21290;BME280;10804;48.988;2.408;2023-03-14T10:42:43;99820.66;;;12.76;66.79
21290;BME280;10804;48.988;2.408;2023-03-14T10:45:28;99817.94;;;12.78;66.79
21290;BME280;10804;48.988;2.408;2023-03-14T10:47:58;99825.75;;;12.79;66.66
21290;BME280;10804;48.988;2.408;2023-03-14T10:50:28;99829.13;;;12.81;66.90
21290;BME280;10804;48.988;2.408;2023-03-14T10:53:01;99848.22;;;12.83;66.70
21290;BME280;10804;48.988;2.408;2023-03-14T10:55:40;99854.16;;;12.87;66.87
21290;BME280;10804;48.988;2.408;2023-03-14T10:58:20;99840.00;;;12.91;66.90
21290;BME280;10804;48.988;2.408;2023-03-14T11:00:52;99854.69;;;12.93;66.81
21290;BME280;10804;48.988;2.408;2023-03-14T11:03:21;99858.97;;;12.96;66.64
21290;BME280;10804;48.988;2.408;2023-03-14T11:05:53;99866.59;;;13.00;66.84
21290;BME280;10804;48.988;2.408;2023-03-14T11:08:27;99872.53;;;13.04;66.87
21290;BME280;10804;48.988;2.408;2023-03-14T11:11:06;99866.31;;;13.06;66.94
21290;BME280;10804;48.988;2.408;2023-03-14T11:13:38;99860.13;;;13.07;66.71
21290;BME280;10804;48.988;2.408;2023-03-14T11:16:12;99868.69;;;13.11;66.60
21290;BME280;10804;48.988;2.408;2023-03-14T11:19:03;99873.75;;;13.14;66.98
21290;BME280;10804;48.988;2.408;2023-03-14T11:21:37;99876.31;;;13.15;66.58
21290;BME280;10804;48.988;2.408;2023-03-14T11:24:30;99882.25;;;13.19;66.59
21290;BME280;10804;48.988;2.408;2023-03-14T11:27:04;99898.66;;;13.22;66.71
21290;BME280;10804;48.988;2.408;2023-03-14T11:29:39;99907.28;;;13.24;66.60
21290;BME280;10804;48.988;2.408;2023-03-14T11:32:14;99914.06;;;13.28;66.59
21290;BME280;10804;48.988;2.408;2023-03-14T11:34:50;99908.66;;;13.31;66.32
21290;BME280;10804;48.988;2.408;2023-03-14T11:37:23;99909.38;;;13.35;66.00
21290;BME280;10804;48.988;2.408;2023-03-14T11:40:00;99894.34;;;13.38;66.04
21290;BME280;10804;48.988;2.408;2023-03-14T11:42:33;99895.88;;;13.42;66.28
21290;BME280;10804;48.988;2.408;2023-03-14T11:45:00;99900.22;;;13.43;65.88
21290;BME280;10804;48.988;2.408;2023-03-14T11:47:30;99897.41;;;13.46;65.94
21290;BME280;10804;48.988;2.408;2023-03-14T11:50:04;99902.50;;;13.49;65.95
21290;BME280;10804;48.988;2.408;2023-03-14T11:52:34;99913.66;;;13.53;65.97
21290;BME280;10804;48.988;2.408;2023-03-14T11:55:07;99905.75;;;13.54;66.00
21290;BME280;10804;48.988;2.408;2023-03-14T11:57:39;99927.38;;;13.58;66.05
21290;BME280;10804;48.988;2.408;2023-03-14T12:00:14;99928.09;;;13.61;66.07
21290;BME280;10804;48.988;2.408;2023-03-14T12:02:49;99921.91;;;13.62;66.46
21290;BME280;10804;48.988;2.408;2023-03-14T12:08:21;99938.25;;;13.67;66.45
21290;BME280;10804;48.988;2.408;2023-03-14T12:10:54;99933.94;;;13.66;65.84
21290;BME280;10804;48.988;2.408;2023-03-14T12:13:28;99938.09;;;13.70;65.99
21290;BME280;10804;48.988;2.408;2023-03-14T12:15:58;99943.34;;;13.70;66.01
21290;BME280;10804;48.988;2.408;2023-03-14T12:18:28;99925.75;;;13.72;66.11
21290;BME280;10804;48.988;2.408;2023-03-14T12:20:58;99937.03;;;13.74;66.06
21290;BME280;10804;48.988;2.408;2023-03-14T12:23:28;99928.13;;;13.77;65.79
21290;BME280;10804;48.988;2.408;2023-03-14T12:26:13;99940.34;;;13.78;65.84
21290;BME280;10804;48.988;2.408;2023-03-14T12:28:43;99937.72;;;13.78;65.59
21290;BME280;10804;48.988;2.408;2023-03-14T12:31:37;99942.84;;;13.79;65.55
21290;BME280;10804;48.988;2.408;2023-03-14T12:34:26;99933.25;;;13.80;65.59
21290;BME280;10804;48.988;2.408;2023-03-14T12:37:28;99933.13;;;13.81;65.41
21290;BME280;10804;48.988;2.408;2023-03-14T12:40:05;99942.72;;;13.82;65.26
21290;BME280;10804;48.988;2.408;2023-03-14T12:42:45;99942.72;;;13.82;65.34
21290;BME280;10804;48.988;2.408;2023-03-14T12:45:24;99944.41;;;13.83;65.30
21290;BME280;10804;48.988;2.408;2023-03-14T12:47:54;99955.72;;;13.84;65.42
21290;BME280;10804;48.988;2.408;2023-03-14T12:50:28;99954.72;;;13.86;65.39
21290;BME280;10804;48.988;2.408;2023-03-14T12:56:05;99986.19;;;13.86;65.30
21290;BME280;10804;48.988;2.408;2023-03-14T12:58:41;100000.16;;;13.87;65.13
21290;BME280;10804;48.988;2.408;2023-03-14T13:01:16;100006.22;;;13.87;65.10
21290;BME280;10804;48.988;2.408;2023-03-14T13:03:46;99994.81;;;13.88;64.94
21290;BME280;10804;48.988;2.408;2023-03-14T13:12:30;100019.31;;;13.87;64.75
21290;BME280;10804;48.988;2.408;2023-03-14T13:15:12;100031.66;;;13.85;64.96
21290;BME280;10804;48.988;2.408;2023-03-14T13:17:41;100035.22;;;13.84;64.77
21290;BME280;10804;48.988;2.408;2023-03-14T13:20:12;100037.84;;;13.84;64.85
21290;BME280;10804;48.988;2.408;2023-03-14T13:22:46;100037.91;;;13.83;64.72
21290;BME280;10804;48.988;2.408;2023-03-14T13:25:14;100047.56;;;13.82;64.55
21290;BME280;10804;48.988;2.408;2023-03-14T13:27:44;100031.84;;;13.82;64.71
21290;BME280;10804;48.988;2.408;2023-03-14T13:30:23;100038.91;;;13.80;65.15
21290;BME280;10804;48.988;2.408;2023-03-14T13:32:52;100032.91;;;13.78;65.32
21290;BME280;10804;48.988;2.408;2023-03-14T13:35:23;100038.19;;;13.77;65.45
21290;BME280;10804;48.988;2.408;2023-03-14T13:37:58;100033.28;;;13.71;65.36
21290;BME280;10804;48.988;2.408;2023-03-14T13:40:29;100040.13;;;13.73;65.43